Fullerville, New York
Current Conditions -  °F | °C
As of 3:17 AM on Sunday 26 Oct 2014 (Local Time) from KGTB Reporting Station
Drizzle Drizzle  
Wind Chill: 45°   Ceiling: 4300
Heat Index: 48°   Visibility: 10mi
Dew Point: 37°   Wind: 7mph
Humidity: 66%   Direction: NA
Pressure: 29.5"   Gusts: NA
Location:  44.3309°N, 75.4775°W
Report Text: KGTB 260717Z AUTO VRB06KT 10SM -DZ OVC043 09/03 A2950 RMK AO2
Loading
Personal Weather Stations






























Interactive Weather Map
Tropical Storm Tracking
New forecast layout! Learn more

10-Day Weather Forecast

Advertisements
Track Severe Weather on mobile